Current Weather

Rochelle Muni/Koritz Fld

Rochelle, Illinois (KRPJ)

Report from: Sunday, February 5, 2023 11:35 PM CST
Current time: Sunday, February 5, 2023 11:58 PM CST

Nearby weather
Weather history
Weather forecast

Present weatherMist
Temperature-6.7°C (19.9°F)
Dew point-6.7°C (19.9°F)
Winds Calm
Visibility5 mi. (8 km)
Clouds Sky clear
Altimeter30.17 in.Hg (1022 mB)
Relative humidity100 %
Density altitude-2,922 ft. (-891 m)
Remarks Fully automated report
Automated weather observing station with precipitation discriminator
Lightning detection system not operating
Flight conditions Visual Meteorological Conditions
Raw dataKRPJ 060535Z AUTO 00000KT 5SM BR CLR M07/M07 A3017 RMK AO2 T10671067 TSNO
An error has occurred. This application may no longer respond until reloaded. Reload 🗙